Time;durP1;ratioP1;P1;durP2;ratioP2;P2;SDS_P1;SDS_P2;PMS_P1;PMS_P2;Temp;Humidity;BMP_temperature;BMP_pressure;BME280_temperature;BME280_humidity;BME280_pressure;Samples;Min_cycle;Max_cycle;Signal;HPM_P1;HPM_P2
2023/07/12 00:01:08;;;;;;;;;;;25.70;48.20;;;;;;6248134;22;20221;-68
2023/07/12 00:03:34;;;;;;;;;;;25.60;48.20;;;;;;6275500;22;19997;-68
2023/07/12 00:05:59;;;;;;;;;;;25.50;48.10;;;;;;6275391;22;19915;-68
2023/07/12 00:08:29;;;;;;;;;;;25.50;48.30;;;;;;6248016;22;19911;-68
2023/07/12 00:10:56;;;;;;;;;;;25.50;49.20;;;;;;6248036;22;20353;-67
2023/07/12 00:13:23;;;;;;;;;;;25.50;49.40;;;;;;6274495;22;20352;-68
2023/07/12 00:15:49;;;;;;;;;;;25.50;49.40;;;;;;6274823;22;20321;-68
2023/07/12 00:18:16;;;;;;;;;;;25.60;49.60;;;;;;6275471;22;20010;-68
2023/07/12 00:20:42;;;;;;;;;;;25.70;49.80;;;;;;6274689;22;19949;-68
2023/07/12 00:23:11;;;;;;;;;;;25.80;50.30;;;;;;6274502;22;20359;-69
2023/07/12 00:25:37;;;;;;;;;;;25.80;50.60;;;;;;6274494;22;19903;-68
2023/07/12 00:28:02;;;;;;;;;;;25.90;50.60;;;;;;6275056;22;19914;-68
2023/07/12 00:30:33;;;;;;;;;;;26.00;50.60;;;;;;6274201;22;19914;-68
2023/07/12 00:33:03;;;;;;;;;;;26.00;51.00;;;;;;6274818;22;19911;-68
2023/07/12 00:35:29;;;;;;;;;;;26.10;51.80;;;;;;6275640;22;19908;-68
2023/07/12 00:37:55;;;;;;;;;;;26.10;52.10;;;;;;6274894;22;19918;-68
2023/07/12 00:40:39;;;;;;;;;;;26.10;52.70;;;;;;6275202;22;19911;-70
2023/07/12 00:43:13;;;;;;;;;;;26.10;53.30;;;;;;6275037;22;19915;-68
2023/07/12 00:45:39;;;;;;;;;;;26.00;53.70;;;;;;6274690;22;19904;-68
2023/07/12 00:48:10;;;;;;;;;;;26.00;54.30;;;;;;6275012;22;19907;-68
2023/07/12 00:50:35;;;;;;;;;;;26.00;54.90;;;;;;6274931;22;19903;-68
2023/07/12 00:53:00;;;;;;;;;;;25.90;55.40;;;;;;6274199;22;19930;-68
2023/07/12 00:55:44;;;;;;;;;;;25.80;55.60;;;;;;6274945;22;19903;-69
2023/07/12 00:58:10;;;;;;;;;;;25.80;55.90;;;;;;6275103;22;19915;-68
2023/07/12 01:00:35;;;;;;;;;;;25.70;56.10;;;;;;6274934;22;19915;-76
2023/07/12 01:03:01;;;;;;;;;;;25.70;56.20;;;;;;6273780;22;20284;-75
2023/07/12 01:05:26;;;;;;;;;;;25.60;56.60;;;;;;6274445;22;19903;-75
2023/07/12 01:07:52;;;;;;;;;;;25.60;57.30;;;;;;6274661;22;19912;-75
2023/07/12 01:10:17;;;;;;;;;;;25.30;58.70;;;;;;6274147;22;20464;-75
2023/07/12 01:12:42;;;;;;;;;;;25.10;60.20;;;;;;6274792;22;19907;-71
2023/07/12 01:15:08;;;;;;;;;;;24.80;61.30;;;;;;6274380;22;20325;-67
2023/07/12 01:17:34;;;;;;;;;;;24.60;62.60;;;;;;6274655;22;19945;-70
2023/07/12 01:19:59;;;;;;;;;;;24.30;63.60;;;;;;6273886;22;19918;-71
2023/07/12 01:22:24;;;;;;;;;;;24.10;64.40;;;;;;6275067;22;19939;-71
2023/07/12 01:24:50;;;;;;;;;;;23.90;65.10;;;;;;6274186;22;20251;-70
2023/07/12 01:27:17;;;;;;;;;;;23.80;65.70;;;;;;6274138;22;19990;-70
2023/07/12 01:29:43;;;;;;;;;;;23.70;66.10;;;;;;6274370;22;19990;-71
2023/07/12 01:32:08;;;;;;;;;;;23.60;66.70;;;;;;6274189;22;19946;-72
2023/07/12 01:34:34;;;;;;;;;;;23.50;67.00;;;;;;6273459;22;19911;-72
2023/07/12 01:37:04;;;;;;;;;;;23.40;67.30;;;;;;6276173;22;19939;-72
2023/07/12 01:39:30;;;;;;;;;;;23.40;67.40;;;;;;6276041;22;20391;-73
2023/07/12 01:41:55;;;;;;;;;;;23.30;67.70;;;;;;6276137;22;19907;-73
2023/07/12 01:44:20;;;;;;;;;;;23.30;67.80;;;;;;6276457;22;20245;-73
2023/07/12 01:46:46;;;;;;;;;;;23.20;68.00;;;;;;6276535;22;19919;-73
2023/07/12 01:49:11;;;;;;;;;;;23.20;68.10;;;;;;6248208;22;19912;-73
2023/07/12 01:51:37;;;;;;;;;;;23.20;68.20;;;;;;6276028;22;19908;-73
2023/07/12 01:54:03;;;;;;;;;;;23.20;68.30;;;;;;6276524;22;19911;-74
2023/07/12 01:56:28;;;;;;;;;;;23.20;68.50;;;;;;6276233;22;19964;-73
2023/07/12 01:58:53;;;;;;;;;;;23.20;68.60;;;;;;6276118;22;19966;-74
2023/07/12 02:01:19;;;;;;;;;;;23.10;68.90;;;;;;6275700;22;20297;-74
2023/07/12 02:03:45;;;;;;;;;;;23.10;69.20;;;;;;6276621;22;19911;-74
2023/07/12 02:06:10;;;;;;;;;;;23.20;69.50;;;;;;6276372;22;20327;-74
2023/07/12 02:08:35;;;;;;;;;;;23.20;69.70;;;;;;6276683;22;19907;-75
2023/07/12 02:11:01;;;;;;;;;;;23.20;69.80;;;;;;6276570;22;19922;-74
2023/07/12 02:13:26;;;;;;;;;;;23.30;69.90;;;;;;6276087;22;20306;-74
2023/07/12 02:15:52;;;;;;;;;;;23.30;69.90;;;;;;6275681;22;19943;-74
2023/07/12 02:18:18;;;;;;;;;;;23.40;70.00;;;;;;6276174;22;19911;-74
2023/07/12 02:20:43;;;;;;;;;;;23.40;70.00;;;;;;6276668;22;19914;-74
2023/07/12 02:23:09;;;;;;;;;;;23.50;70.00;;;;;;6276293;22;20352;-74
2023/07/12 02:25:35;;;;;;;;;;;23.50;70.10;;;;;;6276010;22;19949;-75
2023/07/12 02:28:00;;;;;;;;;;;23.60;70.10;;;;;;6275789;22;19915;-74
2023/07/12 02:30:26;;;;;;;;;;;23.60;70.10;;;;;;6275925;22;19934;-74
2023/07/12 02:32:52;;;;;;;;;;;23.60;70.10;;;;;;6275282;22;19930;-75
2023/07/12 02:35:18;;;;;;;;;;;23.60;70.20;;;;;;6249174;22;19912;-74
2023/07/12 02:37:44;;;;;;;;;;;23.70;70.20;;;;;;6275488;22;19911;-74
2023/07/12 02:40:10;;;;;;;;;;;23.70;70.10;;;;;;6276407;22;19915;-74
2023/07/12 02:42:36;;;;;;;;;;;23.70;70.20;;;;;;6276661;22;19989;-74
2023/07/12 02:45:02;;;;;;;;;;;23.70;70.10;;;;;;6247864;22;19958;-74
2023/07/12 02:47:27;;;;;;;;;;;23.70;70.10;;;;;;6275874;22;19904;-73
2023/07/12 02:49:52;;;;;;;;;;;23.70;70.00;;;;;;6276414;22;19912;-74
2023/07/12 02:52:18;;;;;;;;;;;23.70;70.20;;;;;;6276967;22;19949;-73
2023/07/12 02:54:43;;;;;;;;;;;23.70;70.10;;;;;;6275135;22;19915;-73
2023/07/12 02:57:10;;;;;;;;;;;23.70;69.90;;;;;;6276039;22;19915;-73
2023/07/12 02:59:36;;;;;;;;;;;23.70;70.10;;;;;;6276135;22;19976;-73
2023/07/12 03:02:02;;;;;;;;;;;23.70;70.00;;;;;;6276611;22;19937;-74
2023/07/12 03:04:27;;;;;;;;;;;23.70;70.00;;;;;;6274943;22;19907;-74
2023/07/12 03:06:53;;;;;;;;;;;23.70;70.10;;;;;;6276023;22;19907;-73
2023/07/12 03:09:18;;;;;;;;;;;23.70;70.20;;;;;;6275822;22;19914;-73
2023/07/12 03:11:45;;;;;;;;;;;23.70;70.20;;;;;;6274575;22;19931;-73
2023/07/12 03:14:10;;;;;;;;;;;23.70;70.00;;;;;;6275616;22;19911;-73
2023/07/12 03:16:37;;;;;;;;;;;23.70;70.10;;;;;;6276338;22;19980;-73
2023/07/12 03:19:02;;;;;;;;;;;23.70;70.10;;;;;;6275001;22;20400;-73
2023/07/12 03:21:27;;;;;;;;;;;23.70;70.00;;;;;;6275608;22;19980;-73
2023/07/12 03:23:53;;;;;;;;;;;23.60;70.00;;;;;;6275965;22;19907;-73
2023/07/12 03:26:18;;;;;;;;;;;23.60;69.90;;;;;;6275187;22;19915;-73
2023/07/12 03:28:44;;;;;;;;;;;23.60;69.80;;;;;;6248703;22;19942;-73
2023/07/12 03:31:10;;;;;;;;;;;23.50;69.90;;;;;;6274468;22;19968;-73
2023/07/12 03:33:36;;;;;;;;;;;23.50;69.90;;;;;;6248424;22;19965;-73
2023/07/12 03:36:02;;;;;;;;;;;23.50;69.90;;;;;;6276047;22;19911;-72
2023/07/12 03:38:28;;;;;;;;;;;23.40;69.50;;;;;;6275284;22;19907;-73
2023/07/12 03:40:55;;;;;;;;;;;23.30;69.30;;;;;;6275272;22;20215;-73
2023/07/12 03:43:20;;;;;;;;;;;23.30;69.30;;;;;;6275481;22;19915;-73
2023/07/12 03:45:46;;;;;;;;;;;23.20;69.50;;;;;;6275318;22;19907;-73
2023/07/12 03:48:11;;;;;;;;;;;23.10;69.50;;;;;;6275438;22;19933;-72
2023/07/12 03:50:37;;;;;;;;;;;23.10;69.50;;;;;;6275274;22;20281;-72
2023/07/12 03:53:03;;;;;;;;;;;23.00;69.60;;;;;;6275244;22;19994;-72
2023/07/12 03:55:28;;;;;;;;;;;23.00;69.80;;;;;;6275483;22;19945;-72
2023/07/12 03:57:54;;;;;;;;;;;23.00;69.80;;;;;;6275698;22;19911;-73
2023/07/12 04:00:19;;;;;;;;;;;23.00;69.80;;;;;;6275504;22;19911;-73
2023/07/12 04:02:45;;;;;;;;;;;23.00;69.70;;;;;;6276152;22;19908;-73
2023/07/12 04:05:10;;;;;;;;;;;23.00;69.80;;;;;;6275621;22;20336;-73
2023/07/12 04:07:36;;;;;;;;;;;23.00;69.90;;;;;;6274593;22;19908;-72
2023/07/12 04:10:01;;;;;;;;;;;22.90;69.90;;;;;;6275034;22;20333;-72
2023/07/12 04:12:27;;;;;;;;;;;22.90;69.90;;;;;;6275426;22;20293;-72
2023/07/12 04:14:52;;;;;;;;;;;22.90;69.90;;;;;;6274253;22;20049;-72
2023/07/12 04:17:18;;;;;;;;;;;22.90;69.90;;;;;;6274387;22;20214;-72
2023/07/12 04:19:43;;;;;;;;;;;22.90;69.90;;;;;;6247416;22;19993;-72
2023/07/12 04:22:08;;;;;;;;;;;22.90;69.90;;;;;;6274831;22;19907;-72
2023/07/12 04:24:34;;;;;;;;;;;22.90;69.80;;;;;;6274185;22;19911;-72
2023/07/12 04:26:59;;;;;;;;;;;22.90;69.50;;;;;;6248162;22;20349;-72
2023/07/12 04:29:27;;;;;;;;;;;22.80;69.40;;;;;;6274758;22;19993;-72
2023/07/12 04:31:53;;;;;;;;;;;22.80;69.40;;;;;;6274840;22;19938;-73
2023/07/12 04:34:18;;;;;;;;;;;22.80;69.50;;;;;;6274975;22;19930;-71
2023/07/12 04:36:44;;;;;;;;;;;22.70;69.30;;;;;;6274761;22;19911;-71
2023/07/12 04:39:09;;;;;;;;;;;22.60;69.20;;;;;;6274520;22;19911;-72
2023/07/12 04:41:35;;;;;;;;;;;22.50;69.00;;;;;;6274662;22;19907;-72
2023/07/12 04:44:01;;;;;;;;;;;22.30;69.00;;;;;;6274927;22;19911;-73
2023/07/12 04:46:27;;;;;;;;;;;22.30;69.40;;;;;;6274713;22;19912;-73
2023/07/12 04:48:52;;;;;;;;;;;22.20;69.70;;;;;;6272874;22;19922;-73
2023/07/12 04:51:18;;;;;;;;;;;22.20;70.00;;;;;;6274506;22;19914;-73
2023/07/12 04:53:47;;;;;;;;;;;22.30;70.70;;;;;;6274766;22;19907;-73
2023/07/12 04:56:13;;;;;;;;;;;22.40;70.80;;;;;;6274002;22;19943;-73
2023/07/12 04:58:39;;;;;;;;;;;22.50;70.50;;;;;;6274415;22;19907;-73
2023/07/12 05:01:04;;;;;;;;;;;22.50;70.30;;;;;;6275157;22;19911;-74
2023/07/12 05:03:30;;;;;;;;;;;22.50;70.40;;;;;;6273733;22;19908;-74
2023/07/12 05:05:58;;;;;;;;;;;22.60;70.70;;;;;;6274567;22;19907;-74
2023/07/12 05:08:24;;;;;;;;;;;22.70;70.70;;;;;;6246592;22;19978;-74
2023/07/12 05:10:49;;;;;;;;;;;22.80;70.50;;;;;;6273996;22;19984;-75
2023/07/12 05:13:15;;;;;;;;;;;22.80;70.30;;;;;;6247148;22;19908;-74
2023/07/12 05:15:40;;;;;;;;;;;22.90;70.10;;;;;;6246624;22;19936;-74
2023/07/12 05:18:06;;;;;;;;;;;22.90;70.00;;;;;;6274696;22;20306;-74
2023/07/12 05:20:31;;;;;;;;;;;23.00;70.10;;;;;;6274435;22;19911;-74
2023/07/12 05:22:57;;;;;;;;;;;23.30;70.90;;;;;;6273817;22;19919;-74
2023/07/12 05:25:22;;;;;;;;;;;23.80;71.40;;;;;;6274398;22;19911;-74
2023/07/12 05:27:48;;;;;;;;;;;24.10;71.00;;;;;;6275265;22;19910;-73
2023/07/12 05:30:14;;;;;;;;;;;24.30;70.60;;;;;;6274746;22;19995;-73
2023/07/12 05:32:40;;;;;;;;;;;24.40;70.10;;;;;;6275558;22;20199;-73
2023/07/12 05:35:06;;;;;;;;;;;24.40;69.60;;;;;;6274754;22;20248;-73
2023/07/12 05:37:32;;;;;;;;;;;24.40;69.10;;;;;;6275255;22;19911;-73
2023/07/12 05:39:57;;;;;;;;;;;24.40;69.50;;;;;;6274558;22;19915;-73
2023/07/12 05:42:23;;;;;;;;;;;24.40;69.30;;;;;;6274927;22;19910;-73
2023/07/12 05:44:48;;;;;;;;;;;24.40;69.40;;;;;;6273644;22;19989;-73
2023/07/12 05:47:13;;;;;;;;;;;24.40;69.70;;;;;;6274357;22;20276;-73
2023/07/12 05:49:39;;;;;;;;;;;24.30;68.60;;;;;;6273851;22;19912;-73
2023/07/12 05:52:05;;;;;;;;;;;24.30;69.20;;;;;;6245563;22;19939;-72
2023/07/12 05:54:30;;;;;;;;;;;24.20;69.20;;;;;;6274593;22;19911;-72
2023/07/12 05:56:56;;;;;;;;;;;24.20;68.90;;;;;;6246785;22;19911;-73
2023/07/12 05:59:22;;;;;;;;;;;24.10;69.40;;;;;;6273436;22;20007;-72
2023/07/12 06:01:47;;;;;;;;;;;24.40;70.50;;;;;;6273988;22;19911;-73
2023/07/12 06:04:12;;;;;;;;;;;24.80;70.40;;;;;;6273747;22;19914;-73
2023/07/12 06:06:38;;;;;;;;;;;25.30;70.70;;;;;;6272553;22;19911;-73
2023/07/12 06:09:04;;;;;;;;;;;25.80;70.00;;;;;;6273272;22;20369;-73
2023/07/12 06:11:29;;;;;;;;;;;26.10;69.20;;;;;;6274043;22;19991;-72
2023/07/12 06:13:55;;;;;;;;;;;26.10;68.30;;;;;;6273884;22;19914;-72
2023/07/12 06:16:20;;;;;;;;;;;26.30;68.60;;;;;;6272404;22;19915;-72
2023/07/12 06:18:46;;;;;;;;;;;26.70;68.90;;;;;;6272554;22;19911;-71
2023/07/12 06:21:11;;;;;;;;;;;27.20;68.90;;;;;;6274372;22;19907;-72
2023/07/12 06:23:36;;;;;;;;;;;27.80;68.70;;;;;;6274982;22;19911;-71
2023/07/12 06:26:03;;;;;;;;;;;28.40;66.80;;;;;;6248842;22;20318;-72
2023/07/12 06:28:28;;;;;;;;;;;28.80;66.60;;;;;;6275465;22;19941;-71
2023/07/12 06:30:54;;;;;;;;;;;29.30;66.70;;;;;;6276001;22;19907;-71
2023/07/12 06:33:20;;;;;;;;;;;29.80;66.70;;;;;;6276092;22;20245;-71
2023/07/12 06:35:45;;;;;;;;;;;30.00;65.90;;;;;;6275853;22;19907;-72
2023/07/12 06:38:11;;;;;;;;;;;30.00;66.00;;;;;;6275625;22;19982;-72
2023/07/12 06:40:37;;;;;;;;;;;30.00;66.00;;;;;;6276057;22;20387;-72
2023/07/12 06:43:03;;;;;;;;;;;29.90;64.30;;;;;;6275191;22;20318;-72
2023/07/12 06:45:28;;;;;;;;;;;29.60;63.00;;;;;;6275063;22;19982;-72
2023/07/12 06:47:54;;;;;;;;;;;29.30;62.30;;;;;;6276160;22;19907;-72
2023/07/12 06:50:21;;;;;;;;;;;29.00;62.50;;;;;;6275158;22;19911;-72
2023/07/12 06:52:47;;;;;;;;;;;28.70;63.80;;;;;;6275206;22;19918;-72
2023/07/12 06:55:12;;;;;;;;;;;28.60;63.40;;;;;;6275357;22;19911;-73
2023/07/12 06:57:37;;;;;;;;;;;28.30;61.70;;;;;;6275347;22;19911;-72
2023/07/12 07:00:05;;;;;;;;;;;28.00;59.30;;;;;;6273851;22;20325;-72
2023/07/12 07:02:30;;;;;;;;;;;27.70;60.90;;;;;;6276350;22;19907;-73
2023/07/12 07:04:56;;;;;;;;;;;27.40;60.20;;;;;;6275525;22;19981;-73
2023/07/12 07:07:21;;;;;;;;;;;27.30;60.50;;;;;;6247850;22;20248;-73
2023/07/12 07:09:47;;;;;;;;;;;27.10;60.70;;;;;;6275437;22;19907;-73
2023/07/12 07:12:12;;;;;;;;;;;26.90;60.80;;;;;;6274947;22;19915;-73
2023/07/12 07:14:38;;;;;;;;;;;26.80;59.80;;;;;;6275255;22;19908;-73
2023/07/12 07:17:03;;;;;;;;;;;26.70;60.50;;;;;;6275222;22;19914;-73
2023/07/12 07:19:29;;;;;;;;;;;26.60;58.60;;;;;;6275147;22;20280;-73
2023/07/12 07:21:54;;;;;;;;;;;26.50;57.60;;;;;;6274193;22;19914;-73
2023/07/12 07:24:19;;;;;;;;;;;26.30;57.40;;;;;;6247392;22;19908;-73
2023/07/12 07:26:45;;;;;;;;;;;26.30;58.40;;;;;;6271227;22;19907;-73
2023/07/12 07:29:10;;;;;;;;;;;26.30;57.70;;;;;;6274162;22;19978;-73
2023/07/12 07:31:36;;;;;;;;;;;26.30;58.20;;;;;;6275075;22;19907;-73
2023/07/12 07:34:01;;;;;;;;;;;26.40;58.10;;;;;;6274108;22;20443;-73
2023/07/12 07:36:27;;;;;;;;;;;26.40;57.40;;;;;;6275492;22;20339;-74
2023/07/12 07:38:52;;;;;;;;;;;26.40;56.80;;;;;;6274823;22;19968;-74
2023/07/12 07:41:18;;;;;;;;;;;26.30;57.40;;;;;;6275013;22;19986;-74
2023/07/12 07:43:46;;;;;;;;;;;26.20;54.90;;;;;;6274235;22;19945;-73
2023/07/12 07:46:14;;;;;;;;;;;26.20;55.50;;;;;;6275347;22;19914;-73
2023/07/12 07:48:39;;;;;;;;;;;26.10;55.50;;;;;;6275170;22;19907;-74
2023/07/12 07:51:06;;;;;;;;;;;26.00;53.30;;;;;;6275092;22;19956;-75
2023/07/12 07:53:32;;;;;;;;;;;25.80;54.30;;;;;;6275130;22;20104;-74
2023/07/12 07:55:57;;;;;;;;;;;25.80;54.30;;;;;;6274475;22;19989;-73
2023/07/12 07:58:23;;;;;;;;;;;25.70;54.30;;;;;;6274685;22;20236;-74
2023/07/12 08:00:48;;;;;;;;;;;25.50;54.80;;;;;;6247865;22;19961;-73
2023/07/12 08:03:13;;;;;;;;;;;25.50;55.10;;;;;;6273367;22;19982;-73
2023/07/12 08:05:39;;;;;;;;;;;25.40;55.40;;;;;;6275385;22;19903;-73
2023/07/12 08:08:05;;;;;;;;;;;25.40;55.10;;;;;;6246774;22;19911;-74
2023/07/12 08:10:32;;;;;;;;;;;25.60;56.00;;;;;;6275107;22;19911;-74
2023/07/12 08:12:57;;;;;;;;;;;25.90;55.60;;;;;;6273909;22;20407;-74
2023/07/12 08:15:23;;;;;;;;;;;26.30;56.40;;;;;;6275085;22;19903;-74
2023/07/12 08:17:48;;;;;;;;;;;26.70;56.00;;;;;;6275598;22;19946;-74
2023/07/12 08:20:14;;;;;;;;;;;27.10;54.90;;;;;;6273985;22;19915;-74
2023/07/12 08:22:40;;;;;;;;;;;27.40;55.40;;;;;;6275465;22;19907;-73
2023/07/12 08:25:06;;;;;;;;;;;27.80;54.70;;;;;;6274591;22;19986;-74
2023/07/12 08:27:31;;;;;;;;;;;28.10;53.80;;;;;;6275338;22;19907;-74
2023/07/12 08:30:00;;;;;;;;;;;28.30;53.10;;;;;;6274532;22;20321;-74
2023/07/12 08:32:29;;;;;;;;;;;28.60;53.70;;;;;;6273666;22;19907;-74
2023/07/12 08:34:55;;;;;;;;;;;28.80;51.60;;;;;;6275015;22;19908;-74
2023/07/12 08:37:22;;;;;;;;;;;28.80;50.30;;;;;;6275884;22;19918;-74
2023/07/12 08:39:47;;;;;;;;;;;28.90;50.80;;;;;;6274439;22;19997;-74
2023/07/12 08:42:14;;;;;;;;;;;29.10;50.10;;;;;;6275237;22;19961;-74
2023/07/12 08:44:40;;;;;;;;;;;29.50;50.80;;;;;;6274303;22;19914;-74
2023/07/12 08:47:10;;;;;;;;;;;29.70;49.20;;;;;;6275215;22;19907;-74
2023/07/12 08:49:35;;;;;;;;;;;29.80;46.80;;;;;;6274719;22;20069;-74
2023/07/12 08:52:05;;;;;;;;;;;29.70;45.90;;;;;;6273842;22;19938;-74
2023/07/12 08:54:34;;;;;;;;;;;29.50;46.30;;;;;;6274809;22;19911;-74
2023/07/12 08:57:15;;;;;;;;;;;29.80;48.20;;;;;;6274073;22;20318;-74
2023/07/12 08:59:41;;;;;;;;;;;30.20;47.90;;;;;;6275288;22;19918;-73
2023/07/12 09:02:16;;;;;;;;;;;30.70;46.40;;;;;;6275440;22;20375;-74
2023/07/12 09:04:41;;;;;;;;;;;31.00;44.80;;;;;;6274416;22;19915;-74
2023/07/12 09:07:07;;;;;;;;;;;31.30;42.30;;;;;;6274050;22;19907;-74
2023/07/12 09:09:38;;;;;;;;;;;31.80;42.70;;;;;;6274662;22;19912;-75
2023/07/12 09:12:07;;;;;;;;;;;32.30;40.70;;;;;;6274571;22;20500;-74
2023/07/12 09:14:35;;;;;;;;;;;32.70;38.40;;;;;;6274579;22;19918;-74
2023/07/12 09:17:00;;;;;;;;;;;32.70;38.40;;;;;;6274036;22;20006;-73
2023/07/12 09:19:30;;;;;;;;;;;32.60;37.30;;;;;;6275147;22;19947;-74
2023/07/12 09:21:57;;;;;;;;;;;32.50;37.20;;;;;;6275638;22;20001;-74
2023/07/12 09:24:24;;;;;;;;;;;32.40;37.90;;;;;;6274735;22;19926;-75
2023/07/12 09:26:51;;;;;;;;;;;32.70;39.60;;;;;;6275044;22;19907;-75
2023/07/12 09:29:21;;;;;;;;;;;33.10;37.80;;;;;;6274254;22;20226;-75
2023/07/12 09:31:47;;;;;;;;;;;33.50;36.90;;;;;;6274837;22;20360;-74
2023/07/12 09:34:19;;;;;;;;;;;33.80;35.50;;;;;;6274295;22;19915;-74
2023/07/12 09:36:44;;;;;;;;;;;34.00;35.10;;;;;;6274809;22;20210;-73
2023/07/12 09:39:10;;;;;;;;;;;33.90;36.10;;;;;;6274296;22;19916;-74
2023/07/12 09:41:45;;;;;;;;;;;33.80;35.40;;;;;;6274824;22;19907;-74
2023/07/12 09:44:10;;;;;;;;;;;33.70;34.90;;;;;;6247275;22;19908;-74
2023/07/12 09:46:36;;;;;;;;;;;33.50;34.30;;;;;;6274744;22;19908;-75
2023/07/12 09:49:20;;;;;;;;;;;33.50;34.80;;;;;;6274023;22;19911;-74
2023/07/12 09:52:09;;;;;;;;;;;33.50;34.40;;;;;;6274635;22;19907;-74
2023/07/12 09:54:55;;;;;;;;;;;33.50;34.80;;;;;;6274426;22;19914;-74
2023/07/12 09:57:39;;;;;;;;;;;34.00;34.90;;;;;;6275469;22;19922;-75
2023/07/12 10:00:05;;;;;;;;;;;34.60;33.80;;;;;;6275988;22;20241;-74
2023/07/12 10:02:36;;;;;;;;;;;35.20;32.20;;;;;;6277097;22;19914;-75
2023/07/12 10:05:01;;;;;;;;;;;35.40;30.90;;;;;;6276052;22;20292;-74
2023/07/12 10:07:31;;;;;;;;;;;35.50;30.80;;;;;;6276450;22;19912;-73
2023/07/12 10:09:57;;;;;;;;;;;35.40;30.50;;;;;;6276661;22;19982;-75
2023/07/12 10:12:25;;;;;;;;;;;35.20;31.00;;;;;;6276719;22;19949;-74
2023/07/12 10:14:53;;;;;;;;;;;35.30;31.60;;;;;;6276535;22;19911;-74
2023/07/12 10:17:23;;;;;;;;;;;35.70;31.80;;;;;;6276455;22;19939;-75
2023/07/12 10:19:52;;;;;;;;;;;36.30;31.60;;;;;;6276128;22;19915;-75
2023/07/12 10:22:28;;;;;;;;;;;36.80;30.20;;;;;;6276718;22;19908;-75
2023/07/12 10:24:54;;;;;;;;;;;37.30;28.50;;;;;;6276155;22;20040;-74
2023/07/12 10:27:25;;;;;;;;;;;37.70;27.40;;;;;;6276647;22;20558;-76
2023/07/12 10:29:50;;;;;;;;;;;38.20;28.10;;;;;;6276079;22;20329;-75
2023/07/12 10:32:21;;;;;;;;;;;38.60;27.20;;;;;;6275840;22;19907;-75
2023/07/12 10:34:50;;;;;;;;;;;38.60;26.10;;;;;;6276064;22;19912;-75
2023/07/12 10:37:35;;;;;;;;;;;38.50;26.00;;;;;;6276204;22;20305;-75
2023/07/12 10:40:01;;;;;;;;;;;38.30;26.50;;;;;;6276118;22;19915;-75
2023/07/12 10:42:39;;;;;;;;;;;38.30;26.30;;;;;;6276416;22;19982;-76
2023/07/12 10:45:05;;;;;;;;;;;38.30;26.00;;;;;;6276042;22;19907;-75
2023/07/12 10:47:35;;;;;;;;;;;38.10;25.80;;;;;;6276554;22;20262;-75
2023/07/12 10:50:02;;;;;;;;;;;37.70;25.60;;;;;;6275989;22;19907;-75
2023/07/12 10:52:29;;;;;;;;;;;37.10;26.20;;;;;;6275379;22;20356;-74
2023/07/12 10:55:04;;;;;;;;;;;36.80;26.70;;;;;;6275685;22;19916;-75
2023/07/12 10:57:44;;;;;;;;;;;36.80;27.40;;;;;;6274304;22;19915;-75
2023/07/12 11:00:30;;;;;;;;;;;37.00;27.80;;;;;;6274101;22;19911;-75
2023/07/12 11:03:14;;;;;;;;;;;37.20;27.30;;;;;;6275513;22;20333;-75
2023/07/12 11:05:47;;;;;;;;;;;37.20;26.70;;;;;;6273453;22;19903;-74
2023/07/12 11:08:30;;;;;;;;;;;37.20;26.70;;;;;;6275662;22;19934;-75
2023/07/12 11:11:08;;;;;;;;;;;37.40;26.60;;;;;;6248428;22;19907;-75
2023/07/12 11:13:39;;;;;;;;;;;37.90;26.50;;;;;;6275806;22;19911;-75
2023/07/12 11:16:12;;;;;;;;;;;38.30;25.50;;;;;;6276042;22;19907;-75
2023/07/12 11:18:38;;;;;;;;;;;38.60;25.20;;;;;;6275245;22;19946;-75
2023/07/12 11:21:04;;;;;;;;;;;38.50;24.20;;;;;;6275202;22;19911;-75
2023/07/12 11:23:36;;;;;;;;;;;38.20;24.50;;;;;;6275580;22;19912;-75
2023/07/12 11:26:18;;;;;;;;;;;38.20;24.60;;;;;;6275077;22;20378;-74
2023/07/12 11:28:44;;;;;;;;;;;38.30;24.50;;;;;;6275713;22;20276;-75
2023/07/12 11:31:14;;;;;;;;;;;38.60;24.60;;;;;;6275730;22;19915;-75
2023/07/12 11:33:41;;;;;;;;;;;38.60;23.90;;;;;;6275905;22;19907;-75
2023/07/12 11:36:13;;;;;;;;;;;38.60;23.80;;;;;;6274736;22;19938;-75
2023/07/12 11:38:41;;;;;;;;;;;38.70;23.80;;;;;;6275659;22;20241;-75
2023/07/12 11:41:14;;;;;;;;;;;38.70;23.60;;;;;;6275065;22;19911;-75
2023/07/12 11:43:40;;;;;;;;;;;38.50;23.40;;;;;;6276555;22;19908;-75
2023/07/12 11:46:11;;;;;;;;;;;38.30;23.90;;;;;;6274946;22;20215;-74
2023/07/12 11:48:37;;;;;;;;;;;38.30;23.80;;;;;;6275344;22;20349;-75
2023/07/12 11:51:08;;;;;;;;;;;38.30;24.20;;;;;;6275507;22;19915;-75
2023/07/12 11:53:34;;;;;;;;;;;38.40;24.10;;;;;;6247920;22;19907;-76
2023/07/12 11:56:00;;;;;;;;;;;38.40;24.20;;;;;;6274773;22;20202;-75
2023/07/12 11:58:27;;;;;;;;;;;38.50;23.50;;;;;;6275183;22;19911;-75
2023/07/12 12:00:56;;;;;;;;;;;38.30;23.10;;;;;;6275210;22;20268;-75
2023/07/12 12:03:23;;;;;;;;;;;38.30;23.70;;;;;;6274257;22;19918;-75
2023/07/12 12:05:48;;;;;;;;;;;38.40;23.30;;;;;;6274193;22;19904;-75
2023/07/12 12:08:22;;;;;;;;;;;38.40;23.20;;;;;;6274227;22;19990;-74
2023/07/12 12:10:48;;;;;;;;;;;38.20;23.40;;;;;;6275052;22;19974;-74
2023/07/12 12:13:14;;;;;;;;;;;38.10;23.60;;;;;;6274696;22;20385;-75
2023/07/12 12:15:42;;;;;;;;;;;37.90;23.10;;;;;;6274904;22;19990;-76
2023/07/12 12:18:16;;;;;;;;;;;37.70;23.20;;;;;;6274106;22;19990;-74
2023/07/12 12:20:53;;;;;;;;;;;37.30;23.80;;;;;;6274993;22;19911;-74
2023/07/12 12:23:21;;;;;;;;;;;37.50;24.00;;;;;;6273931;22;20313;-74
2023/07/12 12:25:50;;;;;;;;;;;37.30;24.00;;;;;;6274976;22;19914;-72
2023/07/12 12:28:24;;;;;;;;;;;37.40;24.30;;;;;;6275169;22;19907;-74
2023/07/12 12:30:56;;;;;;;;;;;37.60;24.70;;;;;;6247879;22;19904;-74
2023/07/12 12:33:24;;;;;;;;;;;37.70;24.30;;;;;;6273607;22;19990;-74
2023/07/12 12:35:54;;;;;;;;;;;37.70;23.90;;;;;;6274996;22;19910;-74
2023/07/12 12:38:22;;;;;;;;;;;37.70;23.20;;;;;;6274216;22;20036;-74
2023/07/12 12:40:52;;;;;;;;;;;37.30;23.20;;;;;;6275243;22;19994;-74
2023/07/12 12:43:18;;;;;;;;;;;37.10;23.50;;;;;;6274696;22;19911;-74
2023/07/12 12:45:44;;;;;;;;;;;37.10;23.90;;;;;;6274854;22;20002;-74
2023/07/12 12:48:11;;;;;;;;;;;37.10;23.60;;;;;;6274012;22;20359;-74
2023/07/12 12:50:36;;;;;;;;;;;37.10;23.80;;;;;;6274376;22;19904;-75
2023/07/12 12:53:04;;;;;;;;;;;37.00;23.20;;;;;;6274812;22;20258;-74
2023/07/12 12:55:30;;;;;;;;;;;37.00;23.20;;;;;;6274108;22;19956;-74
2023/07/12 12:57:58;;;;;;;;;;;36.60;23.20;;;;;;6273178;22;19950;-74
2023/07/12 13:00:25;;;;;;;;;;;36.30;23.50;;;;;;6272285;22;19976;-74
2023/07/12 13:02:53;;;;;;;;;;;36.10;24.00;;;;;;6274659;22;19976;-74
2023/07/12 13:05:19;;;;;;;;;;;36.20;24.10;;;;;;6273660;22;19915;-74
2023/07/12 13:07:44;;;;;;;;;;;36.20;23.70;;;;;;6273758;22;19911;-74
2023/07/12 13:10:15;;;;;;;;;;;36.10;24.10;;;;;;6273562;22;19907;-74
2023/07/12 13:12:41;;;;;;;;;;;36.10;23.90;;;;;;6273465;22;19907;-75
2023/07/12 13:15:08;;;;;;;;;;;36.30;23.70;;;;;;6272981;22;19980;-74
2023/07/12 13:17:33;;;;;;;;;;;36.30;23.70;;;;;;6273954;22;20316;-75
2023/07/12 13:19:59;;;;;;;;;;;36.50;23.70;;;;;;6273480;22;19911;-74
2023/07/12 13:22:25;;;;;;;;;;;36.50;22.80;;;;;;6273792;22;19907;-74
2023/07/12 13:24:52;;;;;;;;;;;36.20;23.40;;;;;;6273298;22;19994;-75
2023/07/12 13:27:21;;;;;;;;;;;36.30;23.60;;;;;;6273111;22;19962;-75
2023/07/12 13:29:46;;;;;;;;;;;36.10;23.70;;;;;;6271315;22;19912;-74
2023/07/12 13:32:12;;;;;;;;;;;36.00;24.00;;;;;;6273246;22;19934;-74
2023/07/12 13:34:38;;;;;;;;;;;36.20;23.90;;;;;;6272562;22;20081;-74
2023/07/12 13:37:04;;;;;;;;;;;36.30;24.10;;;;;;6273341;22;20279;-74
2023/07/12 13:39:31;;;;;;;;;;;36.40;23.70;;;;;;6272764;22;19911;-74
2023/07/12 13:41:57;;;;;;;;;;;36.50;23.60;;;;;;6273419;22;19914;-74
2023/07/12 13:44:23;;;;;;;;;;;36.60;23.60;;;;;;6273363;22;19911;-74
2023/07/12 13:46:49;;;;;;;;;;;36.70;23.70;;;;;;6273072;22;19907;-74
2023/07/12 13:49:15;;;;;;;;;;;36.50;23.30;;;;;;6273187;22;19934;-74
2023/07/12 13:51:40;;;;;;;;;;;36.50;23.10;;;;;;6273302;22;20197;-74
2023/07/12 13:54:06;;;;;;;;;;;36.20;23.00;;;;;;6272508;22;19907;-74
2023/07/12 13:56:32;;;;;;;;;;;36.10;23.10;;;;;;6195676;22;1795104;-74
2023/07/12 13:58:57;;;;;;;;;;;36.00;23.20;;;;;;6274167;22;19953;-74
2023/07/12 14:01:25;;;;;;;;;;;36.00;22.90;;;;;;6273559;22;19930;-74
2023/07/12 14:03:51;;;;;;;;;;;36.10;22.80;;;;;;6273456;22;19911;-74
2023/07/12 14:06:16;;;;;;;;;;;36.10;22.80;;;;;;6274091;22;19911;-74
2023/07/12 14:08:42;;;;;;;;;;;36.20;22.90;;;;;;6274204;22;19907;-74
2023/07/12 14:11:16;;;;;;;;;;;36.20;22.90;;;;;;6273371;22;19939;-74
2023/07/12 14:13:42;;;;;;;;;;;36.00;22.70;;;;;;6273889;22;19914;-74
2023/07/12 14:16:07;;;;;;;;;;;35.90;22.80;;;;;;6274210;22;20298;-74